createdAt,value
2022-09-29T00:03:58.566Z,98709.47
2022-09-29T00:09:00.087Z,98712.59
2022-09-29T00:14:01.666Z,98712.56
2022-09-29T00:19:03.942Z,98718.97
2022-09-29T00:24:05.590Z,98726.13
2022-09-29T00:29:07.218Z,98726.38
2022-09-29T00:34:08.769Z,98728.91
2022-09-29T00:39:10.657Z,98725.91
2022-09-29T00:44:14.986Z,98720.41
2022-09-29T00:49:38.792Z,98721.56
2022-09-29T00:54:46.192Z,98720.91
2022-09-29T01:00:04.493Z,98713.09
2022-09-29T01:05:09.135Z,98716.81
2022-09-29T01:10:11.727Z,98715.06
2022-09-29T01:15:14.458Z,98722.16
2022-09-29T01:20:22.539Z,98719.03
2022-09-29T01:25:51.248Z,98730.94
2022-09-29T01:31:05.865Z,98734.50
2022-09-29T01:36:27.112Z,98727.13
2022-09-29T01:41:38.742Z,98731.69
2022-09-29T01:46:44.392Z,98740.38
2022-09-29T01:51:59.580Z,98748.53
2022-09-29T01:57:10.688Z,98739.97
2022-09-29T02:02:19.149Z,98737.69
2022-09-29T02:07:26.276Z,98741.28
2022-09-29T02:12:29.532Z,98740.97
2022-09-29T02:17:34.123Z,98747.91
2022-09-29T02:22:36.089Z,98748.44
2022-09-29T02:27:37.828Z,98752.16
2022-09-29T02:32:39.435Z,98754.66
2022-09-29T02:37:47.368Z,98760.00
2022-09-29T02:43:07.472Z,98762.69
2022-09-29T02:48:21.738Z,98767.16
2022-09-29T02:53:43.340Z,98768.19
2022-09-29T02:59:01.989Z,98768.69
2022-09-29T03:04:04.803Z,98767.47
2022-09-29T03:09:06.542Z,98763.31
2022-09-29T03:14:08.235Z,98769.63
2022-09-29T03:19:09.773Z,98759.69
2022-09-29T03:24:11.352Z,98768.94
2022-09-29T03:29:12.926Z,98761.63
2022-09-29T03:34:14.541Z,98765.28
2022-09-29T03:39:16.105Z,98769.53
2022-09-29T03:44:17.711Z,98773.56
2022-09-29T03:49:19.460Z,98774.88
2022-09-29T03:54:21.174Z,98779.00
2022-09-29T03:59:22.711Z,98786.16
2022-09-29T04:04:24.297Z,98777.13
2022-09-29T04:09:25.928Z,98787.59
2022-09-29T04:14:27.468Z,98779.06
2022-09-29T04:19:28.980Z,98787.63
2022-09-29T04:24:30.483Z,98786.25
2022-09-29T04:29:32.009Z,98791.28
2022-09-29T04:34:33.633Z,98778.09
2022-09-29T04:39:35.431Z,98781.13
2022-09-29T04:44:37.007Z,98793.63
2022-09-29T04:49:38.714Z,98804.38
2022-09-29T04:54:40.673Z,98803.88
2022-09-29T04:59:42.238Z,98808.84
2022-09-29T05:04:43.951Z,98802.41
2022-09-29T05:09:45.539Z,98809.25
2022-09-29T05:14:49.808Z,98798.66
2022-09-29T05:19:53.476Z,98803.94
2022-09-29T05:24:55.128Z,98801.25
2022-09-29T05:29:56.678Z,98803.53
2022-09-29T05:35:00.958Z,98810.50
2022-09-29T05:40:02.613Z,98805.63
2022-09-29T05:45:04.764Z,98815.78
2022-09-29T05:50:06.883Z,98821.34
2022-09-29T05:55:11.131Z,98813.97
2022-09-29T06:00:14.048Z,98806.22
2022-09-29T06:05:15.605Z,98819.88
2022-09-29T06:10:17.271Z,98812.63
2022-09-29T06:15:18.797Z,98814.78
2022-09-29T06:20:21.877Z,98824.09
2022-09-29T06:25:23.712Z,98820.16
2022-09-29T06:30:25.391Z,98816.97
2022-09-29T06:35:48.248Z,98822.47
2022-09-29T06:40:49.861Z,98836.44
2022-09-29T06:45:51.454Z,98827.41
2022-09-29T06:51:05.151Z,98830.84
2022-09-29T06:56:10.676Z,98828.09
2022-09-29T07:01:12.827Z,98828.66
2022-09-29T07:06:19.161Z,98823.22
2022-09-29T07:11:21.874Z,98822.47
2022-09-29T07:16:24.356Z,98832.38
2022-09-29T07:21:26.114Z,98829.22
2022-09-29T07:26:28.232Z,98830.00
2022-09-29T07:31:35.376Z,98834.91
2022-09-29T07:36:44.183Z,98849.19
2022-09-29T07:41:45.810Z,98850.75
2022-09-29T07:46:48.995Z,98843.84
2022-09-29T07:51:50.549Z,98851.84
2022-09-29T07:56:52.160Z,98851.66
2022-09-29T08:01:54.054Z,98860.81
2022-09-29T08:06:56.247Z,98863.38
2022-09-29T08:12:06.854Z,98869.34
2022-09-29T08:17:09.018Z,98860.75
2022-09-29T08:22:10.522Z,98863.94
2022-09-29T08:27:18.669Z,98860.25
2022-09-29T08:32:20.764Z,98861.78
2022-09-29T08:37:22.351Z,98874.63
2022-09-29T08:42:36.190Z,98867.75
2022-09-29T08:47:49.498Z,98870.75
2022-09-29T08:52:54.854Z,98876.88
2022-09-29T08:58:01.428Z,98887.72
2022-09-29T09:03:09.097Z,98901.03
2022-09-29T09:08:25.853Z,98894.06
2022-09-29T09:13:27.388Z,98894.53
2022-09-29T09:18:52.140Z,98888.84
2022-09-29T09:23:59.887Z,98900.00
2022-09-29T09:29:09.272Z,98889.34
2022-09-29T09:34:35.177Z,98885.63
2022-09-29T09:40:14.917Z,98886.72
2022-09-29T09:45:31.560Z,98897.63
2022-09-29T09:50:42.939Z,98896.41
2022-09-29T09:55:47.447Z,98900.47
2022-09-29T10:00:52.699Z,98894.69
2022-09-29T10:05:54.363Z,98897.00
2022-09-29T10:10:59.049Z,98896.84
2022-09-29T10:16:13.236Z,98908.41
2022-09-29T10:21:29.080Z,98916.28
2022-09-29T10:26:37.892Z,98911.19
2022-09-29T10:31:39.911Z,98915.66
2022-09-29T10:36:56.768Z,98910.59
2022-09-29T10:41:58.547Z,98912.00
2022-09-29T10:47:00.408Z,98910.16
2022-09-29T10:52:06.961Z,98922.97
2022-09-29T10:57:14.407Z,98921.81
2022-09-29T11:02:23.697Z,98927.25
2022-09-29T11:07:25.295Z,98923.59
2022-09-29T11:12:34.013Z,98925.25
2022-09-29T11:17:38.805Z,98921.28
2022-09-29T11:22:43.416Z,98914.94
2022-09-29T11:27:53.996Z,98922.59
2022-09-29T11:32:55.427Z,98928.22
2022-09-29T11:37:59.650Z,98936.00
2022-09-29T11:43:04.939Z,98933.31
2022-09-29T11:48:27.331Z,98926.28
2022-09-29T11:53:51.261Z,98931.94
2022-09-29T11:59:04.705Z,98930.72
2022-09-29T12:04:54.376Z,98937.16
2022-09-29T12:10:26.364Z,98940.91
2022-09-29T12:15:46.643Z,98942.53
2022-09-29T12:20:50.444Z,98941.28
2022-09-29T12:26:05.126Z,98939.03
2022-09-29T12:31:23.879Z,98944.41
2022-09-29T12:36:44.244Z,98933.00
2022-09-29T12:41:50.091Z,98937.16
2022-09-29T12:47:16.454Z,98953.97
2022-09-29T12:52:21.292Z,98951.47
2022-09-29T12:57:36.744Z,98944.44
2022-09-29T13:03:03.357Z,98957.28
2022-09-29T13:08:41.174Z,98947.34
2022-09-29T13:14:17.975Z,98958.13
2022-09-29T13:19:57.465Z,98958.97
2022-09-29T13:25:08.659Z,98955.22
2022-09-29T13:30:16.145Z,98959.56
2022-09-29T13:35:21.530Z,98962.25
2022-09-29T13:40:26.827Z,98964.34
2022-09-29T13:45:31.684Z,98963.09
2022-09-29T13:50:50.226Z,98962.66
2022-09-29T13:55:56.419Z,98965.97
2022-09-29T14:01:00.689Z,98955.03
2022-09-29T14:11:44.551Z,98954.81
2022-09-29T14:17:08.631Z,98956.03
2022-09-29T14:22:32.029Z,98947.34
2022-09-29T14:27:52.385Z,98947.75
2022-09-29T14:32:56.482Z,98949.44
2022-09-29T14:38:06.680Z,98944.44
2022-09-29T14:43:15.603Z,98956.25
2022-09-29T14:48:53.651Z,98969.47
2022-09-29T14:54:25.387Z,98986.63
2022-09-29T14:59:48.063Z,98992.38
2022-09-29T15:04:49.816Z,98988.03
2022-09-29T15:09:54.204Z,98993.19
2022-09-29T15:14:58.094Z,98986.97
2022-09-29T15:20:16.834Z,98999.59
2022-09-29T15:25:29.399Z,98996.88
2022-09-29T15:30:31.916Z,99003.09
2022-09-29T15:35:39.324Z,99015.28
2022-09-29T15:40:40.829Z,99022.91
2022-09-29T15:45:52.949Z,99030.38
2022-09-29T15:50:55.835Z,99041.13
2022-09-29T15:55:57.432Z,99039.06
2022-09-29T16:00:58.903Z,99047.94
2022-09-29T16:06:04.709Z,99069.00
2022-09-29T16:11:19.514Z,99066.69
2022-09-29T16:16:27.273Z,99074.09
2022-09-29T16:21:35.175Z,99078.66
2022-09-29T16:26:43.198Z,99084.84
2022-09-29T16:31:49.179Z,99100.97
2022-09-29T16:36:52.156Z,99108.81
2022-09-29T16:41:58.738Z,99120.97
2022-09-29T16:47:15.874Z,99119.81
2022-09-29T16:52:28.730Z,99118.16
2022-09-29T16:57:31.454Z,99128.84
2022-09-29T17:02:33.057Z,99125.97
2022-09-29T17:07:39.356Z,99132.91
2022-09-29T17:12:41.166Z,99144.56
2022-09-29T17:17:44.821Z,99144.47
2022-09-29T17:22:46.965Z,99149.00
2022-09-29T17:28:07.573Z,99157.16
2022-09-29T17:33:12.103Z,99150.94
2022-09-29T17:38:14.975Z,99154.13
2022-09-29T17:43:19.908Z,99163.47
2022-09-29T17:48:21.634Z,99162.69
2022-09-29T17:53:24.334Z,99172.00
2022-09-29T17:58:25.895Z,99172.75
2022-09-29T18:03:29.321Z,99168.59
2022-09-29T18:08:30.888Z,99176.44
2022-09-29T18:13:32.471Z,99177.19
2022-09-29T18:18:34.703Z,99176.44
2022-09-29T18:23:39.571Z,99181.22
2022-09-29T18:28:41.184Z,99185.91
2022-09-29T18:33:42.809Z,99183.59
2022-09-29T18:38:44.493Z,99176.09
2022-09-29T18:43:49.094Z,99176.84
2022-09-29T18:48:50.851Z,99173.13
2022-09-29T18:53:52.858Z,99188.09
2022-09-29T18:58:54.416Z,99176.66
2022-09-29T19:03:56.416Z,99182.66
2022-09-29T19:08:58.115Z,99195.34
2022-09-29T19:13:59.743Z,99194.97
2022-09-29T19:19:04.268Z,99209.50
2022-09-29T19:24:05.834Z,99215.44
2022-09-29T19:29:07.398Z,99219.78
2022-09-29T19:34:08.897Z,99224.94
2022-09-29T19:39:12.008Z,99222.91
2022-09-29T19:44:13.570Z,99239.84
2022-09-29T19:49:15.483Z,99238.56
2022-09-29T19:54:20.273Z,99246.06
2022-09-29T19:59:26.419Z,99242.94
2022-09-29T20:04:33.200Z,99254.66
2022-09-29T20:09:35.015Z,99255.94
2022-09-29T20:14:37.863Z,99263.44
2022-09-29T20:19:39.392Z,99265.13
2022-09-29T20:24:40.970Z,99279.53
2022-09-29T20:29:42.529Z,99284.63
2022-09-29T20:34:44.057Z,99285.19
2022-09-29T20:39:45.650Z,99287.13
2022-09-29T20:44:47.243Z,99294.63
2022-09-29T20:49:48.842Z,99296.06
2022-09-29T20:54:50.417Z,99297.78
2022-09-29T20:59:51.936Z,99310.41
2022-09-29T21:04:54.008Z,99309.53
2022-09-29T21:09:55.617Z,99309.13
2022-09-29T21:14:57.153Z,99326.63
2022-09-29T21:19:58.685Z,99334.00
2022-09-29T21:25:00.265Z,99332.81
2022-09-29T21:30:02.364Z,99333.66
2022-09-29T21:35:04.231Z,99345.38
2022-09-29T21:40:06.214Z,99344.63
2022-09-29T21:45:10.124Z,99354.63
2022-09-29T21:50:11.958Z,99344.44
2022-09-29T21:55:13.605Z,99352.06
2022-09-29T22:00:17.264Z,99352.06
2022-09-29T22:05:18.933Z,99346.47
2022-09-29T22:10:20.430Z,99351.13
2022-09-29T22:15:21.956Z,99363.03
2022-09-29T22:20:23.491Z,99360.34
2022-09-29T22:25:27.494Z,99369.59
2022-09-29T22:30:32.186Z,99377.25
2022-09-29T22:35:37.470Z,99378.69
2022-09-29T22:40:40.127Z,99372.50
2022-09-29T22:45:41.728Z,99376.19
2022-09-29T22:50:47.402Z,99388.25
2022-09-29T22:55:48.948Z,99390.94
2022-09-29T23:01:02.512Z,99377.38
2022-09-29T23:06:05.819Z,99378.81
2022-09-29T23:11:08.237Z,99382.44
2022-09-29T23:16:12.815Z,99387.25
2022-09-29T23:21:19.122Z,99392.47
2022-09-29T23:26:20.968Z,99391.81
2022-09-29T23:31:22.958Z,99405.84
2022-09-29T23:36:26.414Z,99400.81
2022-09-29T23:41:30.032Z,99393.47
2022-09-29T23:46:33.535Z,99393.47
2022-09-29T23:51:36.984Z,99391.47
2022-09-29T23:56:39.055Z,99391.69
